To NAV CANADA Home Page Login to a new session Search on AWWS site Feedback and Comments Disclaimer Vers la page française équivalente Tips FAQ What's new on the site To the Forecasts and Observations / NOTAM section To "File a Flight Plan" website Publications and other links Update of the User's profile FIC Telephone Numbers My Weather Data Folder Route Weather Data Regional Weather Data Local Weather Data To the Forecasts and Observations / NOTAM section
Request Generated 04/30/2017 at 05:07:26 UTC . Weather information available at that time is displayed.

METAR/TAF

If you find any discrepancies between the coded METAR/TAF and the plain language METAR/TAF please use the coded METAR/TAF. LWIS bulletins are not decoded in plain language.

TORONTO/LESTER B. PEARSON INTL/ON    

METAR CYYZ 300500Z 02010KT 15SM SCT100 BKN220 08/M02 A3024 RMK AC4CI3 SLP247=
METAR
LOCATION
CYYZ - TORONTO/LESTER B. PEARSON INTL/ON
DATE - TIME
30 APRIL 2017 - 0500 UTC
WIND
20 TRUE @ 10  KNOTS
VISIBILITY
15 STAT.  MILES
RUNWAY VISUAL RANGE
WEATHER
CLOUDINESS
SCATTERED CLOUDS (3/8 - 4/8) 10000  FT
BROKEN CLOUDS (5/8 - 7/8) 22000  FT
TEMP / DEWPOINT
8 C / -2 C
ALTIMETER
30.24 IN HG
RECENT WEATHER
WIND SHEAR

METAR CYYZ 300400Z 36011G18KT 15SM SCT100 BKN240 08/M02 A3026 RMK AC3CI3 SLP251=
METAR
LOCATION
CYYZ - TORONTO/LESTER B. PEARSON INTL/ON
DATE - TIME
30 APRIL 2017 - 0400 UTC
WIND
360 TRUE @ 11  KNOTS
GUSTS
18 KNOTS
VISIBILITY
15 STAT.  MILES
RUNWAY VISUAL RANGE
WEATHER
CLOUDINESS
SCATTERED CLOUDS (3/8 - 4/8) 10000  FT
BROKEN CLOUDS (5/8 - 7/8) 24000  FT
TEMP / DEWPOINT
8 C / -2 C
ALTIMETER
30.26 IN HG
RECENT WEATHER
WIND SHEAR

METAR CYYZ 300300Z 35008KT 15SM FEW140 SCT220 08/M03 A3026 RMK AC1CI3 SLP254=
METAR
LOCATION
CYYZ - TORONTO/LESTER B. PEARSON INTL/ON
DATE - TIME
30 APRIL 2017 - 0300 UTC
WIND
350 TRUE @ 8  KNOTS
VISIBILITY
15 STAT.  MILES
RUNWAY VISUAL RANGE
WEATHER
CLOUDINESS
FEW CLOUDS (1/8 - 2/8) 14000  FT
SCATTERED CLOUDS (3/8 - 4/8) 22000  FT
TEMP / DEWPOINT
8 C / -3 C
ALTIMETER
30.26 IN HG
RECENT WEATHER
WIND SHEAR

TAF CYYZ 300252Z 3003/0106 34011KT P6SM BKN210 TEMPO 3003/3006 BKN120 FM300600 01012G22KT P6SM BKN050 BKN240 FM301100 07015G25KT P6SM -SHRA OVC050 PROB30 3011/3015 2SM +TSRA BR BKN012CB FM301500 07015G25KT 5SM -SHRA BR OVC020 FM301800 09015G25KT P6SM OVC008 FM010300 09015KT 5SM BR OVC005 RMK NXT FCST BY 300600Z=
TAF
LOCATION

CYYZ - TORONTO/LESTER B. PEARSON INTL/ON
VALIDITY [UTC]
30 APR - 0252 to
01 MAY - 0600
 
TIMES
[UTC]
WIND
[DEGREES TRUE]
VISIBILITY
[STAT. MILES]
WEATHER
CLOUDINESS
[FEET AGL]
 
30 APR - 0300 to
30 APR - 0600
340 @ 11 KNOTS
6+
NIL
21000 BROKEN
TEMPORARY CHANGES
30 APR - 0300 to
30 APR - 0600
 
 
 
12000 BROKEN
 
30 APR - 0600 to
30 APR - 1100
10 @ 12 KNOTS
GUSTS 22 KNOTS
6+
NIL
5000 BROKEN
24000 BROKEN
 
30 APR - 1100 to
30 APR - 1500
70 @ 15 KNOTS
GUSTS 25 KNOTS
6+
LIGHT RAIN SHOWER
5000 OVERCAST
30% PROBABILITY
30 APR - 1100 to
30 APR - 1500
 
2
HEAVY THUNDERSTORM WITH RAIN
MIST
1200 BROKEN WITH CUMULONIMBUS
 
30 APR - 1500 to
30 APR - 1800
70 @ 15 KNOTS
GUSTS 25 KNOTS
5
LIGHT RAIN SHOWER
MIST
2000 OVERCAST
 
30 APR - 1800 to
01 MAY - 0300
90 @ 15 KNOTS
GUSTS 25 KNOTS
6+
NIL
800 OVERCAST
 
01 MAY - 0300 to
01 MAY - 0600
90 @ 15 KNOTS
5
MIST
500 OVERCAST
REMARKS
THE NEXT FORECAST WILL BE ISSUED BY 0600 UTC ON DAY 30


Your time UTC time
Weather data provided by Environment Canada and NAV CANADA